createdAt,value
2023-05-18T03:01:23.012Z,78.74
2023-05-18T03:04:09.961Z,78.57
2023-05-18T03:10:16.958Z,78.43
2023-05-18T03:13:03.991Z,78.33
2023-05-18T03:15:45.647Z,78.82
2023-05-18T03:18:32.942Z,78.51
2023-05-18T03:21:13.881Z,77.90
2023-05-18T03:24:00.944Z,77.62
2023-05-18T03:26:44.622Z,77.77
2023-05-18T03:29:31.952Z,77.18
2023-05-18T03:32:18.907Z,77.12
2023-05-18T03:35:07.936Z,77.24
2023-05-18T03:37:55.870Z,77.28
2023-05-18T03:40:36.541Z,77.17
2023-05-18T03:43:23.960Z,77.58
2023-05-18T03:46:04.414Z,77.90
2023-05-18T03:48:50.951Z,78.04
2023-05-18T03:51:44.816Z,78.05
2023-05-18T03:54:31.927Z,78.04
2023-05-18T03:57:19.873Z,77.89
2023-05-18T04:00:08.878Z,78.09
2023-05-18T04:02:58.945Z,78.42
2023-05-18T04:05:40.038Z,78.63
2023-05-18T04:08:26.841Z,79.64
2023-05-18T04:11:13.880Z,79.61
2023-05-18T04:14:00.921Z,80.09
2023-05-18T04:16:48.031Z,80.05
2023-05-18T04:19:28.386Z,79.89
2023-05-18T04:22:14.888Z,80.67
2023-05-18T04:24:57.431Z,80.20
2023-05-18T04:27:43.862Z,79.63
2023-05-18T04:30:29.736Z,80.24
2023-05-18T04:33:16.812Z,80.37
2023-05-18T04:35:59.034Z,80.63
2023-05-18T04:38:46.856Z,80.99
2023-05-18T04:41:27.235Z,80.64
2023-05-18T04:44:13.808Z,79.37
2023-05-18T04:47:01.799Z,77.54
2023-05-18T04:49:43.826Z,76.43
2023-05-18T04:52:31.840Z,75.64
2023-05-18T04:55:11.905Z,74.63
2023-05-18T04:58:02.788Z,74.44
2023-05-18T05:00:49.804Z,74.36
2023-05-18T05:03:30.353Z,74.07
2023-05-18T05:06:17.782Z,74.56
2023-05-18T05:09:11.754Z,74.04
2023-05-18T05:11:58.790Z,73.79
2023-05-18T05:14:38.933Z,71.84
2023-05-18T05:17:25.808Z,71.83
2023-05-18T05:20:12.744Z,71.40
2023-05-18T05:22:59.815Z,71.06
2023-05-18T05:25:43.869Z,71.57
2023-05-18T05:28:30.748Z,71.99
2023-05-18T05:31:10.945Z,71.73
2023-05-18T05:33:58.796Z,72.42
2023-05-18T05:36:39.473Z,71.82
2023-05-18T05:39:26.760Z,72.11
2023-05-18T05:42:13.756Z,72.36
2023-05-18T05:44:54.168Z,72.93
2023-05-18T05:47:41.803Z,74.08
2023-05-18T05:50:24.116Z,74.54
2023-05-18T05:53:13.693Z,73.98
2023-05-18T05:55:55.358Z,74.73
2023-05-18T05:58:44.745Z,74.61
2023-05-18T06:01:31.721Z,74.61
2023-05-18T06:04:12.814Z,74.38
2023-05-18T06:06:59.732Z,74.61
2023-05-18T06:09:53.712Z,73.38
2023-05-18T06:12:34.131Z,73.68
2023-05-18T06:15:21.737Z,73.58
2023-05-18T06:18:02.253Z,73.41
2023-05-18T06:20:48.742Z,74.75
2023-05-18T06:23:35.668Z,74.49
2023-05-18T06:26:29.808Z,73.66
2023-05-18T06:29:27.684Z,73.56
2023-05-18T06:32:21.763Z,72.97
2023-05-18T06:35:04.191Z,72.77
2023-05-18T06:37:50.671Z,72.53
2023-05-18T06:40:37.715Z,72.08
2023-05-18T06:43:17.810Z,70.58
2023-05-18T06:46:32.750Z,70.04
2023-05-18T06:49:23.782Z,68.93
2023-05-18T06:52:10.690Z,68.18
2023-05-18T06:54:51.831Z,66.71
2023-05-18T06:57:38.668Z,66.31
2023-05-18T07:00:25.642Z,66.74
2023-05-18T07:03:06.238Z,66.92
2023-05-18T07:05:52.633Z,67.09
2023-05-18T07:08:40.648Z,67.54
2023-05-18T07:11:29.667Z,67.81
2023-05-18T07:14:10.051Z,69.26
2023-05-18T07:16:56.626Z,70.52
2023-05-18T07:19:43.807Z,71.65
2023-05-18T07:22:23.655Z,73.14
2023-05-18T07:25:10.606Z,75.89
2023-05-18T07:27:54.731Z,78.25
2023-05-18T07:30:41.615Z,80.42
